Time;durP1;ratioP1;P1;durP2;ratioP2;P2;SDS_P1;SDS_P2;PMS_P1;PMS_P2;Temp;Humidity;BMP_temperature;BMP_pressure;BME280_temperature;BME280_humidity;BME280_pressure;Samples;Min_cycle;Max_cycle;Signal;HPM_P1;HPM_P2
2022/04/12 00:00:07;;;;;;;9.25;6.50;;;3.90;99.90;;;;;;2519611;23;20056;-74
2022/04/12 00:01:15;;;;;;;9.05;6.70;;;3.90;99.90;;;;;;2519945;23;20057;-73
2022/04/12 00:02:15;;;;;;;9.27;6.78;;;3.90;99.90;;;;;;2519930;23;20340;-73
2022/04/12 00:03:16;;;;;;;10.60;6.60;;;3.90;99.90;;;;;;2519080;23;20006;-73
2022/04/12 00:04:16;;;;;;;9.30;6.60;;;3.90;99.90;;;;;;2519811;23;20084;-73
2022/04/12 00:05:18;;;;;;;9.30;6.70;;;3.90;99.90;;;;;;2518990;23;20085;-73
2022/04/12 00:06:18;;;;;;;10.55;6.75;;;3.90;99.90;;;;;;2519227;23;20275;-73
2022/04/12 00:07:19;;;;;;;11.80;6.68;;;3.90;99.90;;;;;;2519140;23;20029;-73
2022/04/12 00:08:19;;;;;;;9.85;6.93;;;3.80;99.90;;;;;;2518885;23;20387;-73
2022/04/12 00:09:20;;;;;;;11.00;7.07;;;3.90;99.90;;;;;;2519611;23;19998;-73
2022/04/12 00:10:21;;;;;;;8.65;6.53;;;3.80;99.90;;;;;;2519440;23;20010;-73
2022/04/12 00:11:22;;;;;;;10.48;7.13;;;3.80;99.90;;;;;;2519840;23;20097;-73
2022/04/12 00:12:23;;;;;;;9.48;6.72;;;3.80;99.90;;;;;;2519132;23;20089;-73
2022/04/12 00:13:24;;;;;;;10.23;6.85;;;3.80;99.90;;;;;;2518477;23;20005;-73
2022/04/12 00:14:25;;;;;;;9.63;6.78;;;3.80;99.90;;;;;;2519895;23;20014;-73
2022/04/12 00:15:26;;;;;;;8.98;6.68;;;3.80;99.90;;;;;;2519786;23;20011;-73
2022/04/12 00:16:26;;;;;;;9.82;6.97;;;3.80;99.90;;;;;;2519835;23;20062;-73
2022/04/12 00:19:04;;;;;;;9.50;6.82;;;3.70;99.90;;;;;;2519283;23;20408;-73
2022/04/12 00:20:05;;;;;;;9.43;6.75;;;3.70;99.90;;;;;;2519590;23;20087;-73
2022/04/12 00:21:07;;;;;;;9.93;6.50;;;3.70;99.90;;;;;;2519940;23;20002;-73
2022/04/12 00:22:08;;;;;;;8.50;6.47;;;3.70;99.90;;;;;;2520044;23;20002;-73
2022/04/12 00:23:11;;;;;;;8.68;6.30;;;3.70;99.90;;;;;;2519145;23;20006;-73
2022/04/12 00:24:11;;;;;;;8.80;6.10;;;3.70;99.90;;;;;;2519829;23;20559;-73
2022/04/12 00:25:12;;;;;;;8.88;6.20;;;3.70;99.90;;;;;;2519646;23;20097;-73
2022/04/12 00:26:13;;;;;;;8.77;5.72;;;3.70;99.90;;;;;;2518892;23;20546;-73
2022/04/12 00:27:14;;;;;;;8.55;6.13;;;3.70;99.90;;;;;;2506943;23;20007;-73
2022/04/12 00:28:16;;;;;;;7.80;5.63;;;3.80;99.90;;;;;;2507125;23;20015;-73
2022/04/12 00:29:16;;;;;;;8.52;6.10;;;3.70;99.90;;;;;;2519206;23;20324;-73
2022/04/12 00:30:18;;;;;;;8.68;6.20;;;3.80;99.90;;;;;;2506882;23;20018;-73
2022/04/12 00:31:19;;;;;;;9.90;6.60;;;3.70;99.90;;;;;;2507539;23;20066;-73
2022/04/12 00:32:19;;;;;;;10.10;6.47;;;3.70;99.90;;;;;;2519452;23;20150;-73
2022/04/12 00:33:20;;;;;;;11.30;7.15;;;3.70;99.90;;;;;;2518802;23;20058;-73
2022/04/12 00:34:21;;;;;;;13.40;7.55;;;3.70;99.90;;;;;;2519699;23;20010;-73
2022/04/12 00:35:23;;;;;;;13.27;8.07;;;3.70;99.90;;;;;;2519487;23;20073;-73
2022/04/12 00:36:24;;;;;;;12.40;7.40;;;3.70;99.90;;;;;;2519468;23;20010;-73
2022/04/12 00:37:25;;;;;;;12.70;8.05;;;3.70;99.90;;;;;;2519767;23;20015;-73
2022/04/12 00:38:27;;;;;;;12.93;8.43;;;3.70;99.90;;;;;;2518881;23;20526;-73
2022/04/12 00:39:28;;;;;;;13.57;8.15;;;3.60;99.90;;;;;;2518736;23;20375;-73
2022/04/12 00:40:30;;;;;;;14.75;9.00;;;3.60;99.90;;;;;;2519089;23;20017;-73
2022/04/12 00:41:35;;;;;;;16.83;9.52;;;3.60;99.90;;;;;;2518684;23;20006;-73
2022/04/12 00:42:36;;;;;;;13.75;8.73;;;3.60;99.90;;;;;;2518958;23;20010;-73
2022/04/12 00:43:38;;;;;;;15.52;9.10;;;3.60;99.90;;;;;;2518627;23;20010;-73
2022/04/12 00:44:38;;;;;;;12.73;8.32;;;3.50;99.90;;;;;;2520509;23;20064;-74
2022/04/12 00:45:39;;;;;;;12.95;8.30;;;3.50;99.90;;;;;;2520661;23;20013;-72
2022/04/12 00:46:39;;;;;;;11.40;8.20;;;3.50;99.90;;;;;;2519488;23;20002;-73
2022/04/12 00:47:40;;;;;;;14.85;9.00;;;3.50;99.90;;;;;;2519398;23;20752;-73
2022/04/12 00:48:41;;;;;;;12.73;8.38;;;3.50;99.90;;;;;;2519859;23;20098;-74
2022/04/12 00:49:42;;;;;;;12.27;8.48;;;3.50;99.90;;;;;;2520422;23;20031;-74
2022/04/12 00:50:43;;;;;;;13.27;8.52;;;3.50;99.90;;;;;;2520281;23;20034;-73
2022/04/12 00:51:45;;;;;;;12.52;8.40;;;3.50;99.90;;;;;;2520281;23;20391;-75
2022/04/12 00:52:49;;;;;;;13.75;8.75;;;3.40;99.90;;;;;;2520377;23;20002;-73
2022/04/12 00:53:51;;;;;;;13.48;9.00;;;3.40;99.90;;;;;;2495234;23;20022;-73
2022/04/12 00:54:53;;;;;;;13.88;8.70;;;3.40;99.90;;;;;;2496197;23;20017;-73
2022/04/12 00:55:55;;;;;;;11.02;8.05;;;3.40;99.90;;;;;;2521252;23;20741;-74
2022/04/12 00:56:56;;;;;;;11.80;8.25;;;3.40;99.90;;;;;;2521060;23;20032;-73
2022/04/12 00:57:57;;;;;;;12.77;8.32;;;3.30;99.90;;;;;;2519442;23;20033;-73
2022/04/12 00:59:02;;;;;;;11.30;7.80;;;3.30;99.90;;;;;;2519324;23;20529;-73
2022/04/12 01:00:05;;;;;;;10.90;7.50;;;3.30;99.90;;;;;;2518776;23;20002;-73
2022/04/12 01:01:06;;;;;;;10.35;7.18;;;3.30;99.90;;;;;;2519590;23;20623;-73
2022/04/12 01:02:07;;;;;;;10.82;7.53;;;3.30;99.90;;;;;;2519576;23;20002;-74
2022/04/12 01:03:08;;;;;;;10.27;7.22;;;3.30;99.90;;;;;;2517931;23;20006;-72
2022/04/12 01:04:09;;;;;;;11.63;7.70;;;3.30;99.90;;;;;;2518600;23;20010;-75
2022/04/12 01:05:10;;;;;;;9.60;7.13;;;3.30;99.90;;;;;;2518536;23;20009;-72
2022/04/12 01:06:11;;;;;;;10.25;7.65;;;3.30;99.90;;;;;;2519283;23;20089;-72
2022/04/12 01:07:11;;;;;;;14.63;9.88;;;3.20;99.90;;;;;;2519429;23;20030;-73
2022/04/12 01:08:12;;;;;;;17.80;10.40;;;3.20;99.90;;;;;;2519198;23;20017;-72
2022/04/12 01:09:13;;;;;;;19.55;11.07;;;3.20;99.90;;;;;;2519238;23;20011;-72
2022/04/12 01:10:15;;;;;;;17.48;10.77;;;3.20;99.90;;;;;;2519160;23;20066;-72
2022/04/12 01:11:16;;;;;;;15.38;9.95;;;3.20;99.90;;;;;;2519459;23;20058;-73
2022/04/12 01:12:21;;;;;;;17.52;10.15;;;3.20;99.90;;;;;;2519206;23;20435;-74
2022/04/12 01:13:21;;;;;;;16.85;10.55;;;3.10;99.90;;;;;;2518531;23;20018;-75
2022/04/12 01:14:23;;;;;;;16.38;10.20;;;3.10;99.90;;;;;;2519282;23;20355;-74
2022/04/12 01:15:25;;;;;;;16.65;10.23;;;3.10;99.90;;;;;;2519276;23;20085;-72
2022/04/12 01:16:25;;;;;;;17.67;10.10;;;3.10;99.90;;;;;;2519175;23;20011;-72
2022/04/12 01:17:26;;;;;;;14.70;9.35;;;3.10;99.90;;;;;;2519181;23;20006;-74
2022/04/12 01:18:26;;;;;;;15.88;9.15;;;3.10;99.90;;;;;;2519256;23;20003;-73
2022/04/12 01:19:27;;;;;;;13.38;8.52;;;3.10;99.90;;;;;;2519294;23;20002;-72
2022/04/12 01:20:30;;;;;;;12.27;8.20;;;3.00;99.90;;;;;;2519206;23;20002;-72
2022/04/12 01:21:39;;;;;;;13.13;8.05;;;3.00;99.90;;;;;;2518770;23;20459;-72
2022/04/12 01:22:51;;;;;;;13.27;7.80;;;3.00;99.90;;;;;;2518658;23;20003;-72
2022/04/12 01:24:06;;;;;;;12.07;8.10;;;3.00;99.90;;;;;;2518016;23;20026;-74
2022/04/12 01:25:06;;;;;;;11.88;7.90;;;3.00;99.90;;;;;;2519838;23;20006;-73
2022/04/12 01:26:07;;;;;;;14.40;8.40;;;3.00;99.90;;;;;;2519704;23;20089;-73
2022/04/12 01:27:08;;;;;;;12.93;8.23;;;3.00;99.90;;;;;;2519294;23;20006;-72
2022/04/12 01:28:10;;;;;;;11.90;8.15;;;3.00;99.90;;;;;;2518604;23;20003;-73
2022/04/12 01:29:11;;;;;;;12.02;7.80;;;3.00;99.90;;;;;;2518526;23;20010;-72
2022/04/12 01:30:12;;;;;;;11.07;7.57;;;2.90;99.90;;;;;;2519155;23;19991;-73
2022/04/12 01:31:12;;;;;;;10.60;7.25;;;2.90;99.90;;;;;;2519264;23;20002;-73
2022/04/12 01:32:13;;;;;;;9.77;7.10;;;2.90;99.90;;;;;;2518966;23;20431;-74
2022/04/12 01:33:14;;;;;;;10.05;7.25;;;2.90;99.90;;;;;;2518578;23;20042;-72
2022/04/12 01:34:15;;;;;;;10.50;7.13;;;3.00;99.90;;;;;;2519324;23;20002;-73
2022/04/12 01:35:15;;;;;;;12.02;6.88;;;2.90;99.90;;;;;;2519255;23;20002;-74
2022/04/12 01:36:16;;;;;;;10.40;6.55;;;2.90;99.90;;;;;;2520546;23;20601;-74
2022/04/12 01:37:16;;;;;;;10.05;7.00;;;2.90;99.90;;;;;;2519695;23;20006;-74
2022/04/12 01:38:17;;;;;;;11.70;7.28;;;2.90;99.90;;;;;;2519513;23;20034;-74
2022/04/12 01:39:18;;;;;;;10.80;6.90;;;2.90;99.90;;;;;;2520373;23;20030;-73
2022/04/12 01:40:18;;;;;;;9.48;7.00;;;2.80;99.90;;;;;;2519438;23;20007;-75
2022/04/12 01:41:19;;;;;;;9.73;6.60;;;2.80;99.90;;;;;;2519439;23;20430;-74
2022/04/12 01:42:20;;;;;;;9.52;6.80;;;2.90;99.90;;;;;;2518603;23;20022;-74
2022/04/12 01:43:20;;;;;;;8.93;6.43;;;2.80;99.90;;;;;;2517892;23;20010;-73
2022/04/12 01:44:21;;;;;;;9.20;6.80;;;2.80;99.90;;;;;;2519426;23;20026;-73
2022/04/12 01:45:23;;;;;;;9.88;6.95;;;2.80;99.90;;;;;;2519451;23;20380;-73
2022/04/12 01:46:23;;;;;;;10.82;7.00;;;2.90;99.90;;;;;;2518447;23;20680;-73
2022/04/12 01:47:24;;;;;;;9.43;6.72;;;2.90;99.90;;;;;;2518537;23;20081;-73
2022/04/12 01:48:25;;;;;;;9.25;6.75;;;2.80;99.90;;;;;;2518376;23;20037;-73
2022/04/12 01:49:26;;;;;;;8.95;6.72;;;2.80;99.90;;;;;;2518127;23;20105;-73
2022/04/12 01:50:26;;;;;;;11.10;6.75;;;2.80;99.90;;;;;;2518048;23;20015;-73
2022/04/12 01:51:28;;;;;;;9.85;6.80;;;2.80;99.90;;;;;;2518413;23;20014;-73
2022/04/12 01:52:28;;;;;;;11.07;7.00;;;2.80;99.90;;;;;;2519255;23;20021;-72
2022/04/12 01:53:29;;;;;;;10.55;7.10;;;2.80;99.90;;;;;;2518895;23;20447;-72
2022/04/12 01:54:30;;;;;;;9.52;6.85;;;2.80;99.90;;;;;;2519423;23;20013;-72
2022/04/12 01:55:30;;;;;;;10.55;6.85;;;2.80;99.90;;;;;;2519372;23;20009;-72
2022/04/12 01:56:32;;;;;;;10.30;6.72;;;2.80;99.90;;;;;;2519750;23;20003;-73
2022/04/12 01:57:32;;;;;;;9.60;6.93;;;2.80;99.90;;;;;;2519111;23;20010;-72
2022/04/12 01:58:34;;;;;;;10.50;6.65;;;2.80;99.90;;;;;;2518322;23;20007;-72
2022/04/12 01:59:35;;;;;;;10.00;6.85;;;2.80;99.90;;;;;;2518772;23;20002;-72
2022/04/12 02:00:36;;;;;;;9.43;6.78;;;2.80;99.90;;;;;;2518963;23;20102;-74
2022/04/12 02:01:36;;;;;;;10.43;7.05;;;2.80;99.90;;;;;;2518870;23;20082;-74
2022/04/12 02:02:37;;;;;;;10.93;6.75;;;2.70;99.90;;;;;;2519042;23;20435;-73
2022/04/12 02:03:38;;;;;;;10.68;6.93;;;2.80;99.90;;;;;;2518665;23;20041;-73
2022/04/12 02:04:38;;;;;;;10.45;7.28;;;2.70;99.90;;;;;;2519334;23;20386;-71
2022/04/12 02:05:39;;;;;;;11.98;7.70;;;2.70;99.90;;;;;;2519277;23;20554;-74
2022/04/12 02:06:40;;;;;;;9.77;7.15;;;2.70;99.90;;;;;;2519507;23;20072;-73
2022/04/12 02:07:42;;;;;;;11.30;7.50;;;2.70;99.90;;;;;;2519155;23;20351;-72
2022/04/12 02:08:44;;;;;;;11.52;7.63;;;2.70;99.90;;;;;;2520014;23;20093;-73
2022/04/12 02:09:45;;;;;;;12.27;8.00;;;2.70;99.90;;;;;;2520493;23;20009;-74
2022/04/12 02:10:45;;;;;;;16.30;9.18;;;2.70;99.90;;;;;;2519499;23;20093;-73
2022/04/12 02:11:46;;;;;;;17.70;9.70;;;2.70;99.90;;;;;;2519369;23;20021;-72
2022/04/12 02:12:47;;;;;;;16.40;8.98;;;2.60;99.90;;;;;;2519141;23;20085;-72
2022/04/12 02:13:47;;;;;;;15.98;9.30;;;2.60;99.90;;;;;;2518672;23;20002;-72
2022/04/12 02:14:48;;;;;;;16.73;9.27;;;2.60;99.90;;;;;;2520269;23;20011;-74
2022/04/12 02:15:49;;;;;;;17.23;9.43;;;2.60;99.90;;;;;;2520182;23;20006;-73
2022/04/12 02:16:49;;;;;;;19.83;10.15;;;2.60;99.90;;;;;;2518422;23;20026;-73
2022/04/12 02:17:50;;;;;;;21.33;10.52;;;2.60;99.90;;;;;;2518691;23;20028;-73
2022/04/12 02:18:51;;;;;;;20.58;10.20;;;2.60;99.90;;;;;;2519768;23;20009;-73
2022/04/12 02:19:51;;;;;;;19.17;10.10;;;2.60;99.90;;;;;;2519045;23;20053;-73
2022/04/12 02:20:52;;;;;;;19.35;10.18;;;2.60;99.90;;;;;;2519150;23;20018;-73
2022/04/12 02:21:52;;;;;;;16.25;9.40;;;2.50;99.90;;;;;;2520507;23;20089;-73
2022/04/12 02:22:53;;;;;;;16.98;8.95;;;2.50;99.90;;;;;;2519445;23;20010;-72
2022/04/12 02:23:54;;;;;;;15.40;8.68;;;2.50;99.90;;;;;;2517684;23;20018;-73
2022/04/12 02:24:54;;;;;;;14.38;8.23;;;2.50;99.90;;;;;;2519224;23;20010;-73
2022/04/12 02:25:55;;;;;;;13.15;8.07;;;2.50;99.90;;;;;;2519339;23;20006;-72
2022/04/12 02:26:55;;;;;;;13.90;8.32;;;2.50;99.90;;;;;;2518651;23;20478;-73
2022/04/12 02:27:56;;;;;;;15.40;8.40;;;2.50;99.90;;;;;;2519499;23;20014;-73
2022/04/12 02:28:56;;;;;;;13.20;8.00;;;2.50;99.90;;;;;;2518711;23;20014;-73
2022/04/12 02:29:57;;;;;;;13.73;7.90;;;2.50;99.90;;;;;;2518064;23;20014;-72
2022/04/12 02:30:57;;;;;;;14.88;7.80;;;2.50;99.90;;;;;;2506614;23;20530;-72
2022/04/12 02:31:58;;;;;;;13.77;8.00;;;2.50;99.90;;;;;;2506321;23;20499;-72
2022/04/12 02:33:02;;;;;;;15.30;8.10;;;2.40;99.90;;;;;;2519503;23;20097;-73
2022/04/12 02:34:02;;;;;;;15.20;8.07;;;2.50;99.90;;;;;;2519850;23;20031;-73
2022/04/12 02:35:04;;;;;;;14.30;8.85;;;2.40;99.90;;;;;;2519651;23;20718;-72
2022/04/12 02:36:05;;;;;;;13.55;7.82;;;2.50;99.90;;;;;;2518237;23;20003;-72
2022/04/12 02:37:05;;;;;;;17.00;8.95;;;2.50;99.90;;;;;;2518643;23;20006;-73
2022/04/12 02:38:06;;;;;;;20.33;10.35;;;2.50;99.90;;;;;;2518576;23;19998;-73
2022/04/12 02:39:06;;;;;;;19.77;10.10;;;2.50;99.90;;;;;;2519436;23;20061;-73
2022/04/12 02:40:07;;;;;;;23.40;11.25;;;2.40;99.90;;;;;;2519860;23;20006;-72
2022/04/12 02:41:08;;;;;;;25.23;12.20;;;2.40;99.90;;;;;;2519974;23;20009;-74
2022/04/12 02:42:09;;;;;;;27.55;12.15;;;2.40;99.90;;;;;;2520243;23;20334;-72
2022/04/12 02:43:09;;;;;;;29.65;13.20;;;2.50;99.90;;;;;;2519729;23;20029;-73
2022/04/12 02:44:10;;;;;;;28.75;12.50;;;2.40;99.90;;;;;;2520162;23;20013;-73
2022/04/12 02:45:10;;;;;;;25.58;11.80;;;2.40;99.90;;;;;;2519315;23;20415;-73
2022/04/12 02:46:11;;;;;;;26.58;11.75;;;2.40;99.90;;;;;;2519178;23;20003;-73
2022/04/12 02:47:12;;;;;;;24.95;11.82;;;2.40;99.90;;;;;;2519491;23;20269;-73
2022/04/12 02:48:12;;;;;;;25.15;12.18;;;2.40;99.90;;;;;;2519761;23;20052;-73
2022/04/12 02:49:13;;;;;;;25.27;11.98;;;2.40;99.90;;;;;;2520125;23;20006;-74
2022/04/12 02:50:14;;;;;;;24.27;12.50;;;2.40;99.90;;;;;;2519280;23;20014;-72
2022/04/12 02:51:14;;;;;;;25.73;13.98;;;2.40;99.90;;;;;;2519390;23;20009;-72
2022/04/12 02:52:15;;;;;;;25.23;13.07;;;2.40;99.90;;;;;;2519347;23;20034;-73
2022/04/12 02:53:15;;;;;;;25.92;13.52;;;2.40;99.90;;;;;;2518470;23;20050;-72
2022/04/12 02:54:16;;;;;;;22.45;11.85;;;2.30;99.90;;;;;;2519053;23;20035;-72
2022/04/12 02:55:17;;;;;;;22.10;11.82;;;2.40;99.90;;;;;;2519167;23;20003;-72
2022/04/12 02:56:17;;;;;;;21.83;11.65;;;2.30;99.90;;;;;;2519088;23;20498;-73
2022/04/12 02:57:18;;;;;;;20.20;11.13;;;2.30;99.90;;;;;;2519479;23;20005;-72
2022/04/12 02:58:19;;;;;;;18.92;10.52;;;2.30;99.90;;;;;;2519519;23;20446;-72
2022/04/12 02:59:20;;;;;;;20.60;10.88;;;2.30;99.90;;;;;;2520171;23;20089;-73
2022/04/12 03:00:20;;;;;;;20.80;10.77;;;2.30;99.90;;;;;;2520137;23;20019;-72
2022/04/12 03:01:21;;;;;;;19.33;11.13;;;2.30;99.90;;;;;;2518685;23;20014;-72
2022/04/12 03:02:22;;;;;;;21.05;11.25;;;2.30;99.90;;;;;;2518658;23;20487;-73
2022/04/12 03:03:22;;;;;;;18.40;10.10;;;2.30;99.90;;;;;;2518464;23;20010;-73
2022/04/12 03:04:23;;;;;;;19.77;10.73;;;2.30;99.90;;;;;;2519417;23;20021;-72
2022/04/12 03:05:23;;;;;;;18.58;10.38;;;2.30;99.90;;;;;;2518437;23;20105;-72
2022/04/12 03:06:24;;;;;;;16.65;9.88;;;2.30;99.90;;;;;;2518173;23;20493;-75
2022/04/12 03:07:24;;;;;;;15.88;9.95;;;2.30;99.90;;;;;;2519072;23;20165;-72
2022/04/12 03:08:25;;;;;;;14.93;9.35;;;2.20;99.90;;;;;;2518255;23;20133;-73
2022/04/12 03:09:26;;;;;;;16.70;9.80;;;2.20;99.90;;;;;;2518280;23;20045;-71
2022/04/12 03:10:26;;;;;;;16.88;10.05;;;2.20;99.90;;;;;;2518633;23;20089;-74
2022/04/12 03:11:27;;;;;;;16.88;9.70;;;2.20;99.90;;;;;;2519287;23;20007;-73
2022/04/12 03:12:27;;;;;;;14.95;9.07;;;2.20;99.90;;;;;;2519720;23;20014;-74
2022/04/12 03:13:28;;;;;;;15.82;9.45;;;2.20;99.90;;;;;;2518428;23;20007;-73
2022/04/12 03:14:28;;;;;;;12.80;8.45;;;2.20;99.90;;;;;;2518963;23;20077;-73
2022/04/12 03:15:29;;;;;;;15.15;8.15;;;2.10;99.90;;;;;;2519752;23;20002;-73
2022/04/12 03:16:30;;;;;;;14.75;8.68;;;2.10;99.90;;;;;;2519650;23;20006;-72
2022/04/12 03:17:30;;;;;;;19.85;9.90;;;2.20;99.90;;;;;;2519677;23;20006;-73
2022/04/12 03:18:31;;;;;;;24.70;11.40;;;2.10;99.90;;;;;;2519818;23;20358;-73
2022/04/12 03:19:31;;;;;;;21.92;11.48;;;2.20;99.90;;;;;;2519673;23;20074;-72
2022/04/12 03:20:32;;;;;;;27.65;12.30;;;2.10;99.90;;;;;;2519722;23;20040;-72
2022/04/12 03:21:34;;;;;;;22.45;11.60;;;2.20;99.90;;;;;;2520237;23;20010;-72
2022/04/12 03:22:35;;;;;;;22.30;10.85;;;2.20;99.90;;;;;;2520298;23;20010;-72
2022/04/12 03:23:36;;;;;;;20.15;11.20;;;2.10;99.90;;;;;;2519493;23;20015;-72
2022/04/12 03:24:37;;;;;;;22.35;11.60;;;2.20;99.90;;;;;;2519992;23;20002;-72
2022/04/12 03:25:38;;;;;;;24.75;11.80;;;2.20;99.90;;;;;;2519964;23;20334;-72
2022/04/12 03:26:39;;;;;;;26.27;12.85;;;2.20;99.90;;;;;;2519951;23;20011;-72
2022/04/12 03:27:40;;;;;;;30.60;13.93;;;2.10;99.90;;;;;;2520163;23;20040;-72
2022/04/12 03:28:40;;;;;;;26.10;13.27;;;2.10;99.90;;;;;;2520028;23;20126;-72
2022/04/12 03:29:41;;;;;;;26.75;14.02;;;2.10;99.90;;;;;;2518822;23;20490;-72
2022/04/12 03:30:41;;;;;;;32.15;15.18;;;2.10;99.90;;;;;;2519064;23;20026;-72
2022/04/12 03:31:42;;;;;;;26.73;14.00;;;2.10;99.90;;;;;;2520446;23;20014;-72
2022/04/12 03:32:43;;;;;;;25.15;12.98;;;2.10;99.90;;;;;;2521581;23;20006;-73
2022/04/12 03:33:46;;;;;;;23.73;12.45;;;2.10;99.90;;;;;;2522041;23;20081;-72
2022/04/12 03:34:46;;;;;;;28.45;14.27;;;2.10;99.90;;;;;;2522348;23;20006;-73
2022/04/12 03:35:47;;;;;;;30.08;14.73;;;2.00;99.90;;;;;;2521880;23;20003;-73
2022/04/12 03:36:48;;;;;;;30.38;14.65;;;2.10;99.90;;;;;;2521373;23;20002;-73
2022/04/12 03:37:48;;;;;;;30.55;15.20;;;2.10;99.90;;;;;;2521404;23;20006;-72
2022/04/12 03:38:49;;;;;;;28.13;14.90;;;2.10;99.90;;;;;;2521477;23;20423;-72
2022/04/12 03:39:51;;;;;;;27.33;14.18;;;2.00;99.90;;;;;;2520532;23;20077;-73
2022/04/12 03:40:52;;;;;;;25.73;13.32;;;2.00;99.90;;;;;;2520250;23;20344;-71
2022/04/12 03:41:52;;;;;;;25.05;12.35;;;2.00;99.90;;;;;;2508844;23;20010;-73
2022/04/12 03:42:53;;;;;;;21.23;11.77;;;2.00;99.90;;;;;;2520496;23;20011;-73
2022/04/12 03:43:54;;;;;;;21.08;12.30;;;2.00;99.90;;;;;;2520302;23;20010;-72
2022/04/12 03:44:54;;;;;;;22.73;12.63;;;2.00;99.90;;;;;;2521216;23;20438;-75
2022/04/12 03:45:55;;;;;;;24.95;13.25;;;2.00;99.90;;;;;;2521168;23;20025;-73
2022/04/12 03:46:56;;;;;;;25.60;14.05;;;2.00;99.90;;;;;;2521174;23;20037;-72
2022/04/12 03:47:56;;;;;;;23.33;12.82;;;2.00;99.90;;;;;;2521130;23;20017;-73
2022/04/12 03:48:57;;;;;;;21.92;12.07;;;1.90;99.90;;;;;;2521065;23;20010;-73
2022/04/12 03:49:57;;;;;;;22.70;12.63;;;2.00;99.90;;;;;;2520990;23;20010;-72
2022/04/12 03:50:58;;;;;;;20.27;11.48;;;2.00;99.90;;;;;;2520997;23;20006;-73
2022/04/12 03:51:59;;;;;;;19.55;11.00;;;1.90;99.90;;;;;;2521164;23;20041;-73
2022/04/12 03:53:00;;;;;;;18.48;11.00;;;1.90;99.90;;;;;;2521196;23;20177;-72
2022/04/12 03:54:02;;;;;;;21.15;12.05;;;1.90;99.90;;;;;;2521104;23;20006;-73
2022/04/12 03:55:04;;;;;;;24.48;13.48;;;1.90;99.90;;;;;;2521503;23;20006;-72
2022/04/12 03:56:09;;;;;;;25.33;13.60;;;1.90;99.90;;;;;;2521436;23;20002;-73
2022/04/12 03:57:09;;;;;;;21.63;12.23;;;1.90;99.90;;;;;;2521368;23;20435;-73
2022/04/12 03:58:10;;;;;;;24.30;13.18;;;1.90;99.90;;;;;;2521198;23;20007;-73
2022/04/12 03:59:10;;;;;;;22.85;12.90;;;1.90;99.90;;;;;;2521414;23;20518;-73
2022/04/12 04:00:12;;;;;;;22.70;12.85;;;1.90;99.90;;;;;;2520904;23;20002;-73
2022/04/12 04:01:12;;;;;;;21.75;12.77;;;1.90;99.90;;;;;;2520957;23;20022;-73
2022/04/12 04:02:13;;;;;;;21.85;12.27;;;1.90;99.90;;;;;;2520892;23;20066;-73
2022/04/12 04:03:14;;;;;;;20.77;12.40;;;2.00;99.90;;;;;;2520794;23;19999;-73
2022/04/12 04:04:15;;;;;;;19.98;11.70;;;2.00;99.90;;;;;;2520984;23;20053;-72
2022/04/12 04:05:16;;;;;;;23.27;12.68;;;2.00;99.90;;;;;;2520967;23;20057;-72
2022/04/12 04:06:16;;;;;;;19.00;11.85;;;2.00;99.90;;;;;;2521386;23;20447;-73
2022/04/12 04:07:17;;;;;;;21.92;12.00;;;2.00;99.90;;;;;;2521439;23;20048;-73
2022/04/12 04:08:17;;;;;;;18.23;11.18;;;2.00;99.90;;;;;;2521359;23;20002;-72
2022/04/12 04:09:18;;;;;;;18.90;11.30;;;2.00;99.90;;;;;;2521179;23;20002;-73
2022/04/12 04:10:19;;;;;;;18.48;10.85;;;2.10;99.90;;;;;;2520963;23;20007;-73
2022/04/12 04:11:20;;;;;;;17.23;10.20;;;2.00;99.90;;;;;;2521089;23;20014;-72
2022/04/12 04:12:22;;;;;;;15.73;9.52;;;2.00;99.90;;;;;;2521157;23;20081;-73
2022/04/12 04:13:26;;;;;;;14.25;9.50;;;2.10;99.90;;;;;;2520563;23;20003;-72
2022/04/12 04:14:28;;;;;;;13.90;9.27;;;2.00;99.90;;;;;;2520501;23;20010;-73
2022/04/12 04:15:31;;;;;;;15.00;9.57;;;2.10;99.90;;;;;;2521397;23;20053;-72
2022/04/12 04:16:32;;;;;;;14.95;9.68;;;2.10;99.90;;;;;;2521025;23;20003;-73
2022/04/12 04:17:33;;;;;;;14.52;9.65;;;2.10;99.90;;;;;;2521304;23;20010;-71
2022/04/12 04:18:34;;;;;;;14.23;9.32;;;2.10;99.90;;;;;;2521205;23;20006;-72
2022/04/12 04:19:34;;;;;;;14.63;9.70;;;2.10;99.90;;;;;;2521065;23;20006;-72
2022/04/12 04:20:36;;;;;;;16.00;9.82;;;2.10;99.90;;;;;;2519306;23;20077;-72
2022/04/12 04:21:37;;;;;;;16.48;10.15;;;2.10;99.90;;;;;;2518809;23;20049;-72
2022/04/12 04:22:40;;;;;;;14.63;9.50;;;2.10;99.90;;;;;;2519364;23;20328;-72
2022/04/12 04:23:40;;;;;;;16.15;9.68;;;2.10;99.90;;;;;;2520375;23;20085;-73
2022/04/12 04:24:41;;;;;;;13.35;9.25;;;2.10;99.90;;;;;;2520847;23;20014;-72
2022/04/12 04:25:42;;;;;;;13.85;9.05;;;2.10;99.90;;;;;;2520617;23;20010;-73
2022/04/12 04:26:44;;;;;;;13.98;9.45;;;2.20;99.90;;;;;;2520838;23;20355;-73
2022/04/12 04:27:44;;;;;;;14.00;8.73;;;2.20;99.90;;;;;;2520591;23;20030;-72
2022/04/12 04:28:47;;;;;;;13.45;9.00;;;2.20;99.90;;;;;;2520519;23;20013;-72
2022/04/12 04:29:47;;;;;;;14.27;8.70;;;2.20;99.90;;;;;;2521377;23;20495;-73
2022/04/12 04:30:51;;;;;;;11.68;8.68;;;2.20;99.90;;;;;;2521031;23;20002;-73
2022/04/12 04:31:51;;;;;;;13.82;9.05;;;2.30;99.90;;;;;;2521352;23;20089;-72
2022/04/12 04:32:52;;;;;;;12.82;8.32;;;2.30;99.90;;;;;;2521059;23;20062;-73
2022/04/12 04:33:53;;;;;;;12.75;8.38;;;2.30;99.90;;;;;;2520749;23;20010;-73
2022/04/12 04:34:53;;;;;;;11.25;8.25;;;2.30;99.90;;;;;;2520919;23;20486;-72
2022/04/12 04:35:54;;;;;;;13.93;8.30;;;2.30;99.90;;;;;;2519670;23;20030;-72
2022/04/12 04:36:54;;;;;;;13.75;8.20;;;2.40;99.90;;;;;;2519605;23;20014;-73
2022/04/12 04:37:55;;;;;;;13.10;8.50;;;2.40;99.90;;;;;;2519647;23;20331;-72
2022/04/12 04:38:56;;;;;;;12.82;8.25;;;2.40;99.90;;;;;;2519806;23;20007;-71
2022/04/12 04:39:56;;;;;;;12.93;9.00;;;2.40;99.90;;;;;;2518795;23;20023;-71
2022/04/12 04:40:57;;;;;;;13.60;8.82;;;2.50;99.90;;;;;;2518782;23;20006;-72
2022/04/12 04:41:57;;;;;;;14.27;8.95;;;2.50;99.90;;;;;;2518978;23;20037;-71
2022/04/12 04:42:58;;;;;;;13.63;8.75;;;2.50;99.90;;;;;;2519286;23;20058;-71
2022/04/12 04:44:00;;;;;;;13.45;8.63;;;2.60;99.90;;;;;;2519234;23;20025;-71
2022/04/12 04:45:01;;;;;;;13.18;8.48;;;2.60;99.90;;;;;;2519665;23;20015;-72
2022/04/12 04:46:01;;;;;;;15.80;9.00;;;2.70;99.90;;;;;;2519680;23;20519;-71
2022/04/12 04:47:02;;;;;;;13.43;8.23;;;2.80;99.90;;;;;;2519002;23;20058;-71
2022/04/12 04:48:04;;;;;;;13.07;8.38;;;2.80;99.90;;;;;;2519031;23;20010;-71
2022/04/12 04:49:04;;;;;;;12.30;8.10;;;2.90;99.90;;;;;;2519005;23;20576;-72
2022/04/12 04:50:05;;;;;;;12.80;8.85;;;3.00;99.90;;;;;;2519109;23;20030;-72
2022/04/12 04:51:06;;;;;;;13.20;8.75;;;3.00;99.90;;;;;;2518810;23;20010;-71
2022/04/12 04:52:07;;;;;;;13.38;8.70;;;3.00;99.90;;;;;;2518936;23;20002;-72
2022/04/12 04:53:10;;;;;;;11.75;8.48;;;3.10;99.90;;;;;;2518110;23;20017;-72
2022/04/12 04:54:11;;;;;;;14.43;8.57;;;3.10;99.90;;;;;;2519737;23;20013;-71
2022/04/12 04:55:12;;;;;;;13.85;9.18;;;3.10;99.90;;;;;;2519654;23;20013;-72
2022/04/12 04:56:12;;;;;;;14.20;8.80;;;3.10;99.90;;;;;;2519818;23;20026;-72
2022/04/12 04:57:13;;;;;;;12.45;8.90;;;3.20;99.90;;;;;;2518919;23;19995;-72
2022/04/12 04:58:13;;;;;;;13.02;9.07;;;3.20;99.90;;;;;;2519097;23;20030;-72
2022/04/12 04:59:14;;;;;;;12.98;8.02;;;3.30;99.90;;;;;;2519680;23;20062;-72
2022/04/12 05:00:17;;;;;;;15.57;8.77;;;3.40;99.90;;;;;;2518499;23;20002;-72
2022/04/12 05:01:18;;;;;;;12.77;8.43;;;3.40;99.90;;;;;;2519219;23;20025;-72
2022/04/12 05:02:18;;;;;;;11.88;8.15;;;3.60;99.90;;;;;;2519910;23;20002;-72
2022/04/12 05:03:19;;;;;;;12.80;7.90;;;3.70;99.90;;;;;;2519132;23;20018;-72
2022/04/12 05:04:19;;;;;;;11.70;7.90;;;3.80;99.90;;;;;;2519869;23;20010;-72
2022/04/12 05:05:21;;;;;;;13.43;8.60;;;4.00;99.90;;;;;;2519147;23;20010;-72
2022/04/12 05:06:22;;;;;;;12.15;7.82;;;4.10;99.90;;;;;;2519304;23;20069;-72
2022/04/12 05:07:26;;;;;;;13.10;8.50;;;4.30;99.90;;;;;;2519903;23;20161;-72
2022/04/12 05:08:27;;;;;;;13.05;8.48;;;4.50;99.90;;;;;;2518807;23;20066;-72
2022/04/12 05:09:27;;;;;;;14.70;8.80;;;4.70;99.90;;;;;;2518968;23;20021;-72
2022/04/12 05:10:29;;;;;;;11.82;8.48;;;4.90;99.90;;;;;;2519597;23;20481;-73
2022/04/12 05:11:31;;;;;;;12.50;8.35;;;5.20;99.90;;;;;;2520187;23;20014;-73
2022/04/12 05:12:32;;;;;;;12.15;8.68;;;5.40;99.90;;;;;;2519830;23;20033;-72
2022/04/12 05:13:32;;;;;;;10.45;7.63;;;5.60;99.90;;;;;;2519897;23;20057;-72
2022/04/12 05:14:33;;;;;;;11.30;8.10;;;5.80;99.90;;;;;;2522231;23;20065;-72
2022/04/12 05:15:34;;;;;;;14.75;8.20;;;6.00;99.90;;;;;;2520649;23;19999;-72
2022/04/12 05:16:38;;;;;;;14.45;8.65;;;6.20;99.90;;;;;;2520097;23;20033;-72
2022/04/12 05:17:39;;;;;;;16.83;10.15;;;6.40;99.90;;;;;;2519737;23;20006;-72
2022/04/12 05:18:40;;;;;;;18.02;10.45;;;6.60;99.90;;;;;;2519304;23;20458;-71